sensor_id;sensor_type;location;lat;lon;timestamp;P1;durP1;ratioP1;P2;durP2;ratioP2
22711;SDS011;11523;50.390;8.072;2023-07-31T00:03:31;8.85;;;2.63;;
22711;SDS011;11523;50.390;8.072;2023-07-31T00:05:57;8.00;;;2.58;;
22711;SDS011;11523;50.390;8.072;2023-07-31T00:09:10;3.75;;;2.20;;
22711;SDS011;11523;50.390;8.072;2023-07-31T00:11:44;5.82;;;2.30;;
22711;SDS011;11523;50.390;8.072;2023-07-31T00:14:18;5.70;;;2.40;;
22711;SDS011;11523;50.390;8.072;2023-07-31T00:16:49;4.68;;;2.33;;
22711;SDS011;11523;50.390;8.072;2023-07-31T00:19:15;6.07;;;2.40;;
22711;SDS011;11523;50.390;8.072;2023-07-31T00:21:47;6.32;;;2.22;;
22711;SDS011;11523;50.390;8.072;2023-07-31T00:24:15;4.68;;;2.20;;
22711;SDS011;11523;50.390;8.072;2023-07-31T00:26:42;5.25;;;2.40;;
22711;SDS011;11523;50.390;8.072;2023-07-31T00:29:08;4.95;;;2.10;;
22711;SDS011;11523;50.390;8.072;2023-07-31T00:31:34;7.82;;;2.72;;
22711;SDS011;11523;50.390;8.072;2023-07-31T00:34:00;5.60;;;2.50;;
22711;SDS011;11523;50.390;8.072;2023-07-31T00:36:31;5.05;;;2.63;;
22711;SDS011;11523;50.390;8.072;2023-07-31T00:39:21;6.13;;;2.50;;
22711;SDS011;11523;50.390;8.072;2023-07-31T00:41:47;6.03;;;2.60;;
22711;SDS011;11523;50.390;8.072;2023-07-31T00:44:15;5.68;;;2.30;;
22711;SDS011;11523;50.390;8.072;2023-07-31T00:46:51;6.60;;;2.30;;
22711;SDS011;11523;50.390;8.072;2023-07-31T00:49:25;5.97;;;2.50;;
22711;SDS011;11523;50.390;8.072;2023-07-31T00:52:05;5.25;;;2.47;;
22711;SDS011;11523;50.390;8.072;2023-07-31T00:58:37;5.80;;;2.53;;
22711;SDS011;11523;50.390;8.072;2023-07-31T01:01:35;6.70;;;2.70;;
22711;SDS011;11523;50.390;8.072;2023-07-31T01:04:17;6.30;;;2.55;;
22711;SDS011;11523;50.390;8.072;2023-07-31T01:12:07;7.07;;;2.20;;
22711;SDS011;11523;50.390;8.072;2023-07-31T01:17:14;5.97;;;2.53;;
22711;SDS011;11523;50.390;8.072;2023-07-31T01:22:30;8.88;;;2.00;;
22711;SDS011;11523;50.390;8.072;2023-07-31T01:28:12;6.63;;;2.83;;
22711;SDS011;11523;50.390;8.072;2023-07-31T01:30:42;5.32;;;2.65;;
22711;SDS011;11523;50.390;8.072;2023-07-31T01:33:12;4.63;;;2.53;;
22711;SDS011;11523;50.390;8.072;2023-07-31T01:35:42;6.57;;;2.63;;
22711;SDS011;11523;50.390;8.072;2023-07-31T01:38:34;5.13;;;2.40;;
22711;SDS011;11523;50.390;8.072;2023-07-31T01:41:00;5.72;;;2.72;;
22711;SDS011;11523;50.390;8.072;2023-07-31T01:43:40;5.20;;;2.70;;
22711;SDS011;11523;50.390;8.072;2023-07-31T01:46:21;4.65;;;2.63;;
22711;SDS011;11523;50.390;8.072;2023-07-31T01:51:56;5.15;;;2.63;;
22711;SDS011;11523;50.390;8.072;2023-07-31T01:54:50;4.85;;;2.72;;
22711;SDS011;11523;50.390;8.072;2023-07-31T01:57:37;5.32;;;2.80;;
22711;SDS011;11523;50.390;8.072;2023-07-31T02:05:54;4.38;;;2.30;;
22711;SDS011;11523;50.390;8.072;2023-07-31T02:08:44;7.20;;;2.95;;
22711;SDS011;11523;50.390;8.072;2023-07-31T02:11:09;4.43;;;2.65;;
22711;SDS011;11523;50.390;8.072;2023-07-31T02:13:38;5.70;;;2.55;;
22711;SDS011;11523;50.390;8.072;2023-07-31T02:16:04;4.05;;;2.63;;
22711;SDS011;11523;50.390;8.072;2023-07-31T02:18:35;3.15;;;2.60;;
22711;SDS011;11523;50.390;8.072;2023-07-31T02:21:03;6.30;;;3.35;;
22711;SDS011;11523;50.390;8.072;2023-07-31T02:23:38;6.68;;;2.60;;
22711;SDS011;11523;50.390;8.072;2023-07-31T02:26:22;5.88;;;2.58;;
22711;SDS011;11523;50.390;8.072;2023-07-31T02:29:06;5.25;;;2.95;;
22711;SDS011;11523;50.390;8.072;2023-07-31T02:31:34;6.20;;;2.63;;
22711;SDS011;11523;50.390;8.072;2023-07-31T02:34:03;4.50;;;2.50;;
22711;SDS011;11523;50.390;8.072;2023-07-31T02:36:29;5.38;;;2.95;;
22711;SDS011;11523;50.390;8.072;2023-07-31T02:38:58;3.28;;;2.20;;
22711;SDS011;11523;50.390;8.072;2023-07-31T02:41:43;5.63;;;3.05;;
22711;SDS011;11523;50.390;8.072;2023-07-31T02:44:27;4.47;;;2.75;;
22711;SDS011;11523;50.390;8.072;2023-07-31T02:46:58;4.28;;;2.60;;
22711;SDS011;11523;50.390;8.072;2023-07-31T02:49:34;5.32;;;2.90;;
22711;SDS011;11523;50.390;8.072;2023-07-31T02:52:08;5.03;;;2.72;;
22711;SDS011;11523;50.390;8.072;2023-07-31T02:57:45;4.72;;;2.80;;
22711;SDS011;11523;50.390;8.072;2023-07-31T03:00:19;5.35;;;2.88;;
22711;SDS011;11523;50.390;8.072;2023-07-31T03:02:50;6.20;;;3.17;;
22711;SDS011;11523;50.390;8.072;2023-07-31T03:05:21;6.15;;;3.33;;
22711;SDS011;11523;50.390;8.072;2023-07-31T03:08:09;5.25;;;2.63;;
22711;SDS011;11523;50.390;8.072;2023-07-31T03:10:49;4.57;;;2.75;;
22711;SDS011;11523;50.390;8.072;2023-07-31T03:16:35;6.20;;;2.80;;
22711;SDS011;11523;50.390;8.072;2023-07-31T03:19:01;3.53;;;2.63;;
22711;SDS011;11523;50.390;8.072;2023-07-31T03:21:33;7.72;;;3.15;;
22711;SDS011;11523;50.390;8.072;2023-07-31T03:24:02;5.88;;;2.80;;
22711;SDS011;11523;50.390;8.072;2023-07-31T03:26:36;5.50;;;3.10;;
22711;SDS011;11523;50.390;8.072;2023-07-31T03:29:12;5.50;;;2.67;;
22711;SDS011;11523;50.390;8.072;2023-07-31T03:31:48;5.10;;;3.03;;
22711;SDS011;11523;50.390;8.072;2023-07-31T03:34:14;5.88;;;3.00;;
22711;SDS011;11523;50.390;8.072;2023-07-31T03:39:45;4.63;;;3.17;;
22711;SDS011;11523;50.390;8.072;2023-07-31T03:48:01;5.95;;;2.72;;
22711;SDS011;11523;50.390;8.072;2023-07-31T03:50:33;4.53;;;2.90;;
22711;SDS011;11523;50.390;8.072;2023-07-31T03:53:15;5.53;;;2.90;;
22711;SDS011;11523;50.390;8.072;2023-07-31T03:55:55;5.25;;;2.90;;
22711;SDS011;11523;50.390;8.072;2023-07-31T03:58:21;5.10;;;3.20;;
22711;SDS011;11523;50.390;8.072;2023-07-31T04:04:03;4.53;;;2.60;;
22711;SDS011;11523;50.390;8.072;2023-07-31T04:09:28;3.30;;;2.90;;
22711;SDS011;11523;50.390;8.072;2023-07-31T04:11:56;5.70;;;3.03;;
22711;SDS011;11523;50.390;8.072;2023-07-31T04:15:04;4.22;;;2.65;;
22711;SDS011;11523;50.390;8.072;2023-07-31T04:17:43;5.82;;;3.00;;
22711;SDS011;11523;50.390;8.072;2023-07-31T04:20:25;3.28;;;2.60;;
22711;SDS011;11523;50.390;8.072;2023-07-31T04:22:59;4.95;;;2.78;;
22711;SDS011;11523;50.390;8.072;2023-07-31T04:25:37;4.05;;;2.72;;
22711;SDS011;11523;50.390;8.072;2023-07-31T04:28:07;5.07;;;3.08;;
22711;SDS011;11523;50.390;8.072;2023-07-31T04:30:40;6.82;;;3.05;;
22711;SDS011;11523;50.390;8.072;2023-07-31T04:33:14;3.33;;;2.63;;
22711;SDS011;11523;50.390;8.072;2023-07-31T04:38:31;6.82;;;2.80;;
22711;SDS011;11523;50.390;8.072;2023-07-31T04:40:57;4.20;;;2.63;;
22711;SDS011;11523;50.390;8.072;2023-07-31T04:43:23;5.55;;;2.88;;
22711;SDS011;11523;50.390;8.072;2023-07-31T04:45:49;5.93;;;2.70;;
22711;SDS011;11523;50.390;8.072;2023-07-31T04:48:15;3.55;;;2.53;;
22711;SDS011;11523;50.390;8.072;2023-07-31T04:50:41;4.15;;;2.80;;
22711;SDS011;11523;50.390;8.072;2023-07-31T04:53:07;3.00;;;2.70;;
22711;SDS011;11523;50.390;8.072;2023-07-31T04:55:33;4.78;;;2.85;;
22711;SDS011;11523;50.390;8.072;2023-07-31T04:58:06;5.07;;;2.80;;
22711;SDS011;11523;50.390;8.072;2023-07-31T05:00:32;4.25;;;2.97;;
22711;SDS011;11523;50.390;8.072;2023-07-31T05:02:58;4.45;;;2.58;;
22711;SDS011;11523;50.390;8.072;2023-07-31T05:05:24;3.50;;;2.63;;
22711;SDS011;11523;50.390;8.072;2023-07-31T05:07:50;5.05;;;2.72;;
22711;SDS011;11523;50.390;8.072;2023-07-31T05:10:15;3.78;;;2.60;;
22711;SDS011;11523;50.390;8.072;2023-07-31T05:12:41;6.22;;;2.92;;
22711;SDS011;11523;50.390;8.072;2023-07-31T05:15:07;4.05;;;2.70;;
22711;SDS011;11523;50.390;8.072;2023-07-31T05:17:34;3.00;;;2.40;;
22711;SDS011;11523;50.390;8.072;2023-07-31T05:20:00;5.25;;;2.83;;
22711;SDS011;11523;50.390;8.072;2023-07-31T05:22:25;3.22;;;2.30;;
22711;SDS011;11523;50.390;8.072;2023-07-31T05:24:51;6.30;;;2.75;;
22711;SDS011;11523;50.390;8.072;2023-07-31T05:27:19;5.38;;;2.72;;
22711;SDS011;11523;50.390;8.072;2023-07-31T05:29:45;6.10;;;2.60;;
22711;SDS011;11523;50.390;8.072;2023-07-31T05:32:11;4.55;;;2.95;;
22711;SDS011;11523;50.390;8.072;2023-07-31T05:34:37;4.85;;;2.75;;
22711;SDS011;11523;50.390;8.072;2023-07-31T05:37:04;4.53;;;2.55;;
22711;SDS011;11523;50.390;8.072;2023-07-31T05:39:30;4.95;;;3.00;;
22711;SDS011;11523;50.390;8.072;2023-07-31T05:41:56;4.50;;;2.63;;
22711;SDS011;11523;50.390;8.072;2023-07-31T05:44:22;3.50;;;2.40;;
22711;SDS011;11523;50.390;8.072;2023-07-31T05:46:48;4.65;;;2.40;;
22711;SDS011;11523;50.390;8.072;2023-07-31T05:49:14;3.50;;;2.30;;
22711;SDS011;11523;50.390;8.072;2023-07-31T05:51:40;5.20;;;2.67;;
22711;SDS011;11523;50.390;8.072;2023-07-31T05:54:06;3.97;;;2.53;;
22711;SDS011;11523;50.390;8.072;2023-07-31T05:56:32;4.70;;;3.00;;
22711;SDS011;11523;50.390;8.072;2023-07-31T05:58:59;5.07;;;2.75;;
22711;SDS011;11523;50.390;8.072;2023-07-31T06:01:25;4.40;;;2.72;;
22711;SDS011;11523;50.390;8.072;2023-07-31T06:03:50;5.28;;;3.15;;
22711;SDS011;11523;50.390;8.072;2023-07-31T06:06:16;3.40;;;2.70;;
22711;SDS011;11523;50.390;8.072;2023-07-31T06:08:42;4.90;;;2.75;;
22711;SDS011;11523;50.390;8.072;2023-07-31T06:11:08;5.22;;;3.08;;
22711;SDS011;11523;50.390;8.072;2023-07-31T06:13:35;6.47;;;3.20;;
22711;SDS011;11523;50.390;8.072;2023-07-31T06:16:01;6.22;;;2.88;;
22711;SDS011;11523;50.390;8.072;2023-07-31T06:18:30;5.85;;;3.20;;
22711;SDS011;11523;50.390;8.072;2023-07-31T06:20:56;5.30;;;3.10;;
22711;SDS011;11523;50.390;8.072;2023-07-31T06:23:22;6.53;;;2.90;;
22711;SDS011;11523;50.390;8.072;2023-07-31T06:25:48;6.25;;;3.17;;
22711;SDS011;11523;50.390;8.072;2023-07-31T06:28:13;6.05;;;2.90;;
22711;SDS011;11523;50.390;8.072;2023-07-31T06:30:39;10.30;;;3.25;;
22711;SDS011;11523;50.390;8.072;2023-07-31T06:33:05;10.60;;;3.70;;
22711;SDS011;11523;50.390;8.072;2023-07-31T06:35:31;4.68;;;2.28;;
22711;SDS011;11523;50.390;8.072;2023-07-31T06:37:57;6.65;;;3.10;;
22711;SDS011;11523;50.390;8.072;2023-07-31T06:40:23;6.32;;;3.33;;
22711;SDS011;11523;50.390;8.072;2023-07-31T06:42:49;6.93;;;3.28;;
22711;SDS011;11523;50.390;8.072;2023-07-31T06:45:15;4.30;;;2.25;;
22711;SDS011;11523;50.390;8.072;2023-07-31T06:47:41;4.47;;;2.90;;
22711;SDS011;11523;50.390;8.072;2023-07-31T06:50:08;2.40;;;2.03;;
22711;SDS011;11523;50.390;8.072;2023-07-31T06:52:34;5.85;;;3.35;;
22711;SDS011;11523;50.390;8.072;2023-07-31T06:55:16;5.90;;;3.25;;
22711;SDS011;11523;50.390;8.072;2023-07-31T06:57:47;7.28;;;3.50;;
22711;SDS011;11523;50.390;8.072;2023-07-31T07:00:13;5.47;;;3.65;;
22711;SDS011;11523;50.390;8.072;2023-07-31T07:02:39;6.82;;;3.20;;
22711;SDS011;11523;50.390;8.072;2023-07-31T07:05:06;6.70;;;2.97;;
22711;SDS011;11523;50.390;8.072;2023-07-31T07:07:32;7.22;;;3.55;;
22711;SDS011;11523;50.390;8.072;2023-07-31T07:09:58;7.25;;;3.47;;
22711;SDS011;11523;50.390;8.072;2023-07-31T07:12:28;8.73;;;3.72;;
22711;SDS011;11523;50.390;8.072;2023-07-31T07:14:54;5.95;;;3.30;;
22711;SDS011;11523;50.390;8.072;2023-07-31T07:17:20;5.97;;;3.28;;
22711;SDS011;11523;50.390;8.072;2023-07-31T07:19:47;3.95;;;2.72;;
22711;SDS011;11523;50.390;8.072;2023-07-31T07:22:13;6.43;;;3.80;;
22711;SDS011;11523;50.390;8.072;2023-07-31T07:24:39;8.80;;;3.28;;
22711;SDS011;11523;50.390;8.072;2023-07-31T07:27:05;6.00;;;3.63;;
22711;SDS011;11523;50.390;8.072;2023-07-31T07:29:31;9.93;;;3.58;;
22711;SDS011;11523;50.390;8.072;2023-07-31T07:31:57;6.05;;;3.38;;
22711;SDS011;11523;50.390;8.072;2023-07-31T07:34:27;6.47;;;3.47;;
22711;SDS011;11523;50.390;8.072;2023-07-31T07:36:53;6.60;;;3.47;;
22711;SDS011;11523;50.390;8.072;2023-07-31T07:39:19;7.70;;;3.50;;
22711;SDS011;11523;50.390;8.072;2023-07-31T07:41:45;5.68;;;3.20;;
22711;SDS011;11523;50.390;8.072;2023-07-31T07:44:11;7.65;;;3.92;;
22711;SDS011;11523;50.390;8.072;2023-07-31T07:46:37;7.60;;;3.55;;
22711;SDS011;11523;50.390;8.072;2023-07-31T07:49:04;8.27;;;3.90;;
22711;SDS011;11523;50.390;8.072;2023-07-31T07:51:30;7.35;;;3.55;;
22711;SDS011;11523;50.390;8.072;2023-07-31T07:53:56;6.78;;;3.67;;
22711;SDS011;11523;50.390;8.072;2023-07-31T07:56:23;11.07;;;3.72;;
22711;SDS011;11523;50.390;8.072;2023-07-31T07:58:49;9.32;;;4.10;;
22711;SDS011;11523;50.390;8.072;2023-07-31T08:01:15;6.55;;;3.40;;
22711;SDS011;11523;50.390;8.072;2023-07-31T08:03:41;7.97;;;3.70;;
22711;SDS011;11523;50.390;8.072;2023-07-31T08:06:07;4.35;;;3.10;;
22711;SDS011;11523;50.390;8.072;2023-07-31T08:08:42;6.35;;;3.58;;
22711;SDS011;11523;50.390;8.072;2023-07-31T08:11:08;7.00;;;3.50;;
22711;SDS011;11523;50.390;8.072;2023-07-31T08:13:34;7.35;;;3.88;;
22711;SDS011;11523;50.390;8.072;2023-07-31T08:16:01;7.70;;;4.10;;
22711;SDS011;11523;50.390;8.072;2023-07-31T08:18:27;10.27;;;3.75;;
22711;SDS011;11523;50.390;8.072;2023-07-31T08:20:53;5.00;;;3.28;;
22711;SDS011;11523;50.390;8.072;2023-07-31T08:23:19;6.63;;;3.33;;
22711;SDS011;11523;50.390;8.072;2023-07-31T08:25:45;11.52;;;4.07;;
22711;SDS011;11523;50.390;8.072;2023-07-31T08:28:11;7.85;;;3.30;;
22711;SDS011;11523;50.390;8.072;2023-07-31T08:30:37;5.95;;;3.17;;
22711;SDS011;11523;50.390;8.072;2023-07-31T08:33:03;5.85;;;3.28;;
22711;SDS011;11523;50.390;8.072;2023-07-31T08:35:29;5.85;;;3.40;;
22711;SDS011;11523;50.390;8.072;2023-07-31T08:38:02;6.72;;;3.13;;
22711;SDS011;11523;50.390;8.072;2023-07-31T08:40:28;6.97;;;3.45;;
22711;SDS011;11523;50.390;8.072;2023-07-31T08:42:54;5.20;;;3.28;;
22711;SDS011;11523;50.390;8.072;2023-07-31T08:45:27;8.00;;;3.33;;
22711;SDS011;11523;50.390;8.072;2023-07-31T08:47:53;7.85;;;3.38;;
22711;SDS011;11523;50.390;8.072;2023-07-31T08:50:20;10.88;;;3.83;;
22711;SDS011;11523;50.390;8.072;2023-07-31T08:52:46;8.18;;;4.13;;
22711;SDS011;11523;50.390;8.072;2023-07-31T08:55:13;7.80;;;3.78;;
22711;SDS011;11523;50.390;8.072;2023-07-31T08:57:39;8.05;;;4.00;;
22711;SDS011;11523;50.390;8.072;2023-07-31T09:00:05;5.88;;;3.47;;
22711;SDS011;11523;50.390;8.072;2023-07-31T09:02:43;5.65;;;3.60;;
22711;SDS011;11523;50.390;8.072;2023-07-31T09:05:10;5.93;;;3.75;;
22711;SDS011;11523;50.390;8.072;2023-07-31T09:07:36;6.80;;;3.65;;
22711;SDS011;11523;50.390;8.072;2023-07-31T09:10:03;7.70;;;3.90;;
22711;SDS011;11523;50.390;8.072;2023-07-31T09:12:30;8.50;;;3.83;;
22711;SDS011;11523;50.390;8.072;2023-07-31T09:14:59;7.80;;;3.85;;
22711;SDS011;11523;50.390;8.072;2023-07-31T09:17:30;8.63;;;3.90;;
22711;SDS011;11523;50.390;8.072;2023-07-31T09:19:56;7.53;;;3.80;;
22711;SDS011;11523;50.390;8.072;2023-07-31T09:22:33;9.60;;;3.88;;
22711;SDS011;11523;50.390;8.072;2023-07-31T09:25:14;5.68;;;3.65;;
22711;SDS011;11523;50.390;8.072;2023-07-31T09:27:51;9.52;;;4.15;;
22711;SDS011;11523;50.390;8.072;2023-07-31T09:30:17;7.05;;;3.90;;
22711;SDS011;11523;50.390;8.072;2023-07-31T09:32:44;7.00;;;4.30;;
22711;SDS011;11523;50.390;8.072;2023-07-31T09:35:18;8.82;;;4.00;;
22711;SDS011;11523;50.390;8.072;2023-07-31T09:37:48;6.97;;;4.20;;
22711;SDS011;11523;50.390;8.072;2023-07-31T09:40:36;7.78;;;3.70;;
22711;SDS011;11523;50.390;8.072;2023-07-31T09:43:03;6.70;;;4.05;;
22711;SDS011;11523;50.390;8.072;2023-07-31T09:45:52;7.25;;;4.22;;
22711;SDS011;11523;50.390;8.072;2023-07-31T09:48:19;9.70;;;3.92;;
22711;SDS011;11523;50.390;8.072;2023-07-31T09:50:47;7.50;;;3.83;;
22711;SDS011;11523;50.390;8.072;2023-07-31T09:53:13;7.00;;;3.60;;
22711;SDS011;11523;50.390;8.072;2023-07-31T09:55:40;8.93;;;3.83;;
22711;SDS011;11523;50.390;8.072;2023-07-31T09:58:06;11.10;;;3.95;;
22711;SDS011;11523;50.390;8.072;2023-07-31T10:00:33;7.85;;;3.50;;
22711;SDS011;11523;50.390;8.072;2023-07-31T10:02:59;6.47;;;3.30;;
22711;SDS011;11523;50.390;8.072;2023-07-31T10:05:28;11.27;;;4.18;;
22711;SDS011;11523;50.390;8.072;2023-07-31T10:07:56;12.52;;;3.70;;
22711;SDS011;11523;50.390;8.072;2023-07-31T10:10:22;7.40;;;4.07;;
22711;SDS011;11523;50.390;8.072;2023-07-31T10:12:49;4.90;;;3.10;;
22711;SDS011;11523;50.390;8.072;2023-07-31T10:15:15;5.35;;;3.63;;
22711;SDS011;11523;50.390;8.072;2023-07-31T10:17:42;7.70;;;4.18;;
22711;SDS011;11523;50.390;8.072;2023-07-31T10:20:08;8.27;;;3.97;;
22711;SDS011;11523;50.390;8.072;2023-07-31T10:22:34;10.25;;;4.05;;
22711;SDS011;11523;50.390;8.072;2023-07-31T10:25:01;8.20;;;4.25;;
22711;SDS011;11523;50.390;8.072;2023-07-31T10:27:27;7.65;;;3.40;;
22711;SDS011;11523;50.390;8.072;2023-07-31T10:29:54;10.75;;;3.83;;
22711;SDS011;11523;50.390;8.072;2023-07-31T10:32:20;9.25;;;4.15;;
22711;SDS011;11523;50.390;8.072;2023-07-31T10:34:47;8.82;;;3.95;;
22711;SDS011;11523;50.390;8.072;2023-07-31T10:37:20;8.50;;;3.88;;
22711;SDS011;11523;50.390;8.072;2023-07-31T10:39:55;8.95;;;3.80;;
22711;SDS011;11523;50.390;8.072;2023-07-31T10:42:21;7.05;;;3.50;;
22711;SDS011;11523;50.390;8.072;2023-07-31T10:44:55;5.60;;;3.85;;
22711;SDS011;11523;50.390;8.072;2023-07-31T10:47:21;8.00;;;3.67;;
22711;SDS011;11523;50.390;8.072;2023-07-31T10:49:48;9.75;;;3.83;;
22711;SDS011;11523;50.390;8.072;2023-07-31T10:52:15;6.25;;;3.40;;
22711;SDS011;11523;50.390;8.072;2023-07-31T10:54:47;8.10;;;4.15;;
22711;SDS011;11523;50.390;8.072;2023-07-31T10:57:22;9.23;;;4.07;;
22711;SDS011;11523;50.390;8.072;2023-07-31T10:59:50;6.07;;;3.78;;
22711;SDS011;11523;50.390;8.072;2023-07-31T11:02:26;6.00;;;3.63;;
22711;SDS011;11523;50.390;8.072;2023-07-31T11:05:09;8.10;;;4.18;;
22711;SDS011;11523;50.390;8.072;2023-07-31T11:07:48;6.75;;;3.85;;
22711;SDS011;11523;50.390;8.072;2023-07-31T11:10:17;6.78;;;3.20;;
22711;SDS011;11523;50.390;8.072;2023-07-31T11:12:44;4.40;;;3.45;;
22711;SDS011;11523;50.390;8.072;2023-07-31T11:15:11;6.47;;;4.05;;
22711;SDS011;11523;50.390;8.072;2023-07-31T11:17:40;6.40;;;3.60;;
22711;SDS011;11523;50.390;8.072;2023-07-31T11:20:06;5.30;;;3.80;;
22711;SDS011;11523;50.390;8.072;2023-07-31T11:22:34;4.93;;;3.20;;
22711;SDS011;11523;50.390;8.072;2023-07-31T11:25:01;9.88;;;3.25;;
22711;SDS011;11523;50.390;8.072;2023-07-31T11:27:28;4.65;;;3.40;;
22711;SDS011;11523;50.390;8.072;2023-07-31T11:30:01;6.55;;;3.28;;
22711;SDS011;11523;50.390;8.072;2023-07-31T11:32:27;4.95;;;3.28;;
22711;SDS011;11523;50.390;8.072;2023-07-31T11:34:53;4.95;;;3.15;;
22711;SDS011;11523;50.390;8.072;2023-07-31T11:37:19;4.28;;;3.33;;
22711;SDS011;11523;50.390;8.072;2023-07-31T11:40:00;6.20;;;3.10;;
22711;SDS011;11523;50.390;8.072;2023-07-31T11:42:27;7.38;;;3.08;;
22711;SDS011;11523;50.390;8.072;2023-07-31T11:44:53;4.28;;;3.15;;
22711;SDS011;11523;50.390;8.072;2023-07-31T11:47:19;3.30;;;2.78;;
22711;SDS011;11523;50.390;8.072;2023-07-31T11:49:45;4.25;;;2.80;;
22711;SDS011;11523;50.390;8.072;2023-07-31T11:52:11;4.72;;;3.03;;
22711;SDS011;11523;50.390;8.072;2023-07-31T11:54:38;5.20;;;3.00;;
22711;SDS011;11523;50.390;8.072;2023-07-31T11:57:04;8.88;;;2.88;;
22711;SDS011;11523;50.390;8.072;2023-07-31T11:59:30;4.82;;;2.67;;
22711;SDS011;11523;50.390;8.072;2023-07-31T12:01:56;5.18;;;2.60;;
22711;SDS011;11523;50.390;8.072;2023-07-31T12:04:23;3.90;;;2.53;;
22711;SDS011;11523;50.390;8.072;2023-07-31T12:06:49;4.53;;;2.90;;
22711;SDS011;11523;50.390;8.072;2023-07-31T12:09:18;4.38;;;2.70;;
22711;SDS011;11523;50.390;8.072;2023-07-31T12:11:44;4.32;;;2.72;;
22711;SDS011;11523;50.390;8.072;2023-07-31T12:14:28;3.38;;;2.75;;
22711;SDS011;11523;50.390;8.072;2023-07-31T12:17:04;4.05;;;2.78;;
22711;SDS011;11523;50.390;8.072;2023-07-31T12:19:32;2.85;;;2.53;;
22711;SDS011;11523;50.390;8.072;2023-07-31T12:22:01;5.88;;;2.72;;
22711;SDS011;11523;50.390;8.072;2023-07-31T12:24:28;4.65;;;2.72;;
22711;SDS011;11523;50.390;8.072;2023-07-31T12:26:54;4.78;;;2.50;;
22711;SDS011;11523;50.390;8.072;2023-07-31T12:29:20;3.75;;;2.30;;
22711;SDS011;11523;50.390;8.072;2023-07-31T12:31:46;3.70;;;2.38;;
22711;SDS011;11523;50.390;8.072;2023-07-31T12:34:15;5.60;;;2.50;;
22711;SDS011;11523;50.390;8.072;2023-07-31T12:36:42;3.40;;;2.33;;
22711;SDS011;11523;50.390;8.072;2023-07-31T12:39:08;3.95;;;1.80;;
22711;SDS011;11523;50.390;8.072;2023-07-31T12:41:35;4.85;;;2.40;;
22711;SDS011;11523;50.390;8.072;2023-07-31T12:44:01;5.28;;;1.85;;
22711;SDS011;11523;50.390;8.072;2023-07-31T12:46:28;3.08;;;1.77;;
22711;SDS011;11523;50.390;8.072;2023-07-31T12:48:54;2.00;;;1.80;;
22711;SDS011;11523;50.390;8.072;2023-07-31T12:51:19;4.65;;;2.22;;
22711;SDS011;11523;50.390;8.072;2023-07-31T12:53:46;3.72;;;2.30;;
22711;SDS011;11523;50.390;8.072;2023-07-31T12:56:12;4.15;;;2.13;;
22711;SDS011;11523;50.390;8.072;2023-07-31T12:58:38;2.95;;;2.15;;
22711;SDS011;11523;50.390;8.072;2023-07-31T13:01:03;4.50;;;2.30;;
22711;SDS011;11523;50.390;8.072;2023-07-31T13:03:31;6.15;;;2.42;;
22711;SDS011;11523;50.390;8.072;2023-07-31T13:05:57;3.08;;;2.58;;
22711;SDS011;11523;50.390;8.072;2023-07-31T13:08:22;4.75;;;2.30;;
22711;SDS011;11523;50.390;8.072;2023-07-31T13:10:48;4.15;;;2.80;;
22711;SDS011;11523;50.390;8.072;2023-07-31T13:13:14;4.38;;;2.72;;
22711;SDS011;11523;50.390;8.072;2023-07-31T13:15:40;3.58;;;2.80;;
22711;SDS011;11523;50.390;8.072;2023-07-31T13:18:06;5.40;;;3.03;;
22711;SDS011;11523;50.390;8.072;2023-07-31T13:20:32;4.32;;;3.33;;
22711;SDS011;11523;50.390;8.072;2023-07-31T13:22:58;3.40;;;2.95;;
22711;SDS011;11523;50.390;8.072;2023-07-31T13:25:24;7.30;;;3.40;;
22711;SDS011;11523;50.390;8.072;2023-07-31T13:27:50;6.20;;;3.58;;
22711;SDS011;11523;50.390;8.072;2023-07-31T13:30:16;3.05;;;2.78;;
22711;SDS011;11523;50.390;8.072;2023-07-31T13:32:42;3.40;;;3.10;;
22711;SDS011;11523;50.390;8.072;2023-07-31T13:35:08;3.17;;;2.10;;
22711;SDS011;11523;50.390;8.072;2023-07-31T13:37:36;4.03;;;2.65;;
22711;SDS011;11523;50.390;8.072;2023-07-31T13:40:02;6.45;;;3.25;;
22711;SDS011;11523;50.390;8.072;2023-07-31T13:42:29;3.83;;;2.50;;
22711;SDS011;11523;50.390;8.072;2023-07-31T13:44:56;4.93;;;3.10;;
22711;SDS011;11523;50.390;8.072;2023-07-31T13:47:22;5.22;;;3.00;;
22711;SDS011;11523;50.390;8.072;2023-07-31T13:49:48;4.57;;;2.72;;
22711;SDS011;11523;50.390;8.072;2023-07-31T13:52:14;3.75;;;2.80;;
22711;SDS011;11523;50.390;8.072;2023-07-31T13:54:40;4.80;;;2.50;;
22711;SDS011;11523;50.390;8.072;2023-07-31T13:57:07;2.33;;;2.13;;
22711;SDS011;11523;50.390;8.072;2023-07-31T13:59:33;3.58;;;2.60;;
22711;SDS011;11523;50.390;8.072;2023-07-31T14:01:59;3.10;;;2.50;;
22711;SDS011;11523;50.390;8.072;2023-07-31T14:04:25;5.90;;;2.58;;
22711;SDS011;11523;50.390;8.072;2023-07-31T14:06:51;3.33;;;2.28;;
22711;SDS011;11523;50.390;8.072;2023-07-31T14:09:17;5.00;;;2.20;;
22711;SDS011;11523;50.390;8.072;2023-07-31T14:11:43;3.40;;;2.45;;
22711;SDS011;11523;50.390;8.072;2023-07-31T14:14:09;3.00;;;2.10;;
22711;SDS011;11523;50.390;8.072;2023-07-31T14:16:35;1.80;;;1.40;;
22711;SDS011;11523;50.390;8.072;2023-07-31T14:19:01;1.73;;;1.60;;
22711;SDS011;11523;50.390;8.072;2023-07-31T14:21:27;2.50;;;1.60;;
22711;SDS011;11523;50.390;8.072;2023-07-31T14:23:53;4.32;;;1.90;;
22711;SDS011;11523;50.390;8.072;2023-07-31T14:26:19;2.58;;;1.73;;
22711;SDS011;11523;50.390;8.072;2023-07-31T14:28:45;3.38;;;1.60;;
22711;SDS011;11523;50.390;8.072;2023-07-31T14:31:11;4.72;;;1.65;;
22711;SDS011;11523;50.390;8.072;2023-07-31T14:33:44;2.47;;;1.58;;
22711;SDS011;11523;50.390;8.072;2023-07-31T14:36:10;2.90;;;1.48;;
22711;SDS011;11523;50.390;8.072;2023-07-31T14:38:36;1.83;;;1.67;;
22711;SDS011;11523;50.390;8.072;2023-07-31T14:41:02;3.70;;;1.60;;
22711;SDS011;11523;50.390;8.072;2023-07-31T14:43:28;3.70;;;1.88;;
22711;SDS011;11523;50.390;8.072;2023-07-31T14:45:54;1.85;;;1.55;;
22711;SDS011;11523;50.390;8.072;2023-07-31T14:48:23;1.98;;;1.77;;
22711;SDS011;11523;50.390;8.072;2023-07-31T14:50:49;2.58;;;1.80;;
22711;SDS011;11523;50.390;8.072;2023-07-31T14:53:14;3.38;;;1.38;;
22711;SDS011;11523;50.390;8.072;2023-07-31T14:55:40;1.92;;;1.20;;
22711;SDS011;11523;50.390;8.072;2023-07-31T14:58:06;3.25;;;1.70;;
22711;SDS011;11523;50.390;8.072;2023-07-31T15:00:32;1.73;;;1.30;;
22711;SDS011;11523;50.390;8.072;2023-07-31T15:02:58;2.17;;;1.83;;
22711;SDS011;11523;50.390;8.072;2023-07-31T15:05:24;3.45;;;1.58;;
22711;SDS011;11523;50.390;8.072;2023-07-31T15:07:50;1.55;;;1.40;;
22711;SDS011;11523;50.390;8.072;2023-07-31T15:10:16;1.67;;;1.50;;
22711;SDS011;11523;50.390;8.072;2023-07-31T15:12:42;2.70;;;1.65;;
22711;SDS011;11523;50.390;8.072;2023-07-31T15:15:08;2.80;;;1.90;;
22711;SDS011;11523;50.390;8.072;2023-07-31T15:17:34;3.75;;;1.73;;
22711;SDS011;11523;50.390;8.072;2023-07-31T15:20:00;2.28;;;1.70;;
22711;SDS011;11523;50.390;8.072;2023-07-31T15:22:26;2.63;;;1.38;;
22711;SDS011;11523;50.390;8.072;2023-07-31T15:24:52;3.45;;;1.60;;
22711;SDS011;11523;50.390;8.072;2023-07-31T15:27:18;3.03;;;1.60;;
22711;SDS011;11523;50.390;8.072;2023-07-31T15:29:44;1.65;;;1.30;;
22711;SDS011;11523;50.390;8.072;2023-07-31T15:32:10;2.33;;;1.52;;
22711;SDS011;11523;50.390;8.072;2023-07-31T15:34:36;3.17;;;1.70;;
22711;SDS011;11523;50.390;8.072;2023-07-31T15:37:02;2.17;;;1.50;;
22711;SDS011;11523;50.390;8.072;2023-07-31T15:39:35;1.50;;;1.40;;
22711;SDS011;11523;50.390;8.072;2023-07-31T15:42:01;3.88;;;2.00;;
22711;SDS011;11523;50.390;8.072;2023-07-31T15:44:27;3.17;;;1.58;;
22711;SDS011;11523;50.390;8.072;2023-07-31T15:46:53;2.13;;;1.63;;
22711;SDS011;11523;50.390;8.072;2023-07-31T15:49:19;1.98;;;1.77;;
22711;SDS011;11523;50.390;8.072;2023-07-31T15:51:45;1.77;;;1.58;;